Latest Weather Observations for Kalgoorlie-Boulder

IDW60801

Issued at 3:05 pm WST Thursday 31 July 2014 (issued every 30 minutes, with the page automatically refreshed every 10 minutes)

About weather observations | Map of weather stations | Latest weather observations for WA | Other Formats
Station Details ID: 012038 Name: KALGOORLIE-BOULDER AIRPORT Lat: -30.78 Lon: 121.45 Height: 365.3 m
Data from the previous 72 hours. | See also: Recent months at Kalgoorlie-Boulder
Date/Time
WST
Temp
°C
App
Temp
°C
Dew
Point
Rel
Hum
%
Delta-T
°C
Wind Press
QNH
hPa
Press
MSL
hPa
Rain
since 9 am
mm
Dir
 
Spd
km/h
Gust
km/h
Spd
kts
Gust
kts
31/03:00pm 16.1 10.4 -0.4 32 7.1 SSW 19 26 10 14 1023.8 1023.9 0.4
31/02:30pm 16.3 11.8 -0.4 32 7.2 S 13 24 7 13 1023.7 - 0.4
31/02:00pm 15.6 10.7 -0.2 34 6.8 S 15 28 8 15 1023.7 - 0.0
31/01:30pm 15.3 10.1 0.0 35 6.6 S 17 28 9 15 1023.6 - 0.0
31/01:00pm 15.0 10.1 -0.2 35 6.5 S 15 24 8 13 1023.7 - 0.0
31/12:30pm 15.6 10.3 -0.6 33 6.9 S 17 30 9 16 1023.8 - 0.0
31/12:00pm 14.3 9.0 -0.3 36 6.2 S 17 28 9 15 1024.3 1024.5 0.0
31/11:30am 13.5 8.2 -0.3 38 5.8 S 17 28 9 15 1024.6 - 0.0
31/11:00am 13.1 8.4 0.7 42 5.3 S 15 20 8 11 1025.0 - 0.0
31/10:30am 11.9 6.3 1.4 48 4.5 S 20 30 11 16 1025.1 - 0.0
31/10:00am 12.3 6.7 1.4 47 4.7 SSE 20 28 11 15 1024.9 - 0.0
31/09:30am 11.0 4.9 2.8 57 3.6 S 24 32 13 17 1024.8 - 0.0
31/09:00am 10.9 4.5 3.2 59 3.4 S 26 35 14 19 1024.4 1024.6 0.0
31/08:30am 11.3 5.6 5.1 65 2.9 S 24 32 13 17 1023.8 - 0.0
31/08:00am 11.6 6.0 3.3 56 3.7 SSW 22 32 12 17 1023.2 - 0.0
31/07:30am 11.3 6.1 3.5 58 3.5 S 20 30 11 16 1022.9 - 0.0
31/07:00am 11.1 5.0 3.0 57 3.6 SSW 24 33 13 18 1022.7 - 0.0
31/06:30am 11.4 5.8 3.4 58 3.6 S 22 30 12 16 1022.3 - 0.0
31/06:00am 11.6 4.9 3.9 59 3.5 SSW 28 39 15 21 1021.8 1022.0 0.0
31/05:30am 11.6 5.9 4.7 62 3.2 SSW 24 32 13 17 1021.6 - 0.0
31/05:16am 11.6 5.1 4.7 62 3.2 SSW 28 39 15 21 1021.5 - 0.0
31/05:00am 11.4 7.6 5.9 69 2.6 SSW 15 20 8 11 1021.1 - 0.0
31/04:30am 10.8 7.7 5.7 71 2.4 W 11 22 6 12 1020.9 - 0.0
31/04:00am 10.3 7.3 5.8 73 2.1 W 11 15 6 8 1020.8 - 0.0
31/03:30am 10.1 7.0 5.4 72 2.2 W 11 15 6 8 1020.7 - 0.0
31/03:00am 9.9 6.4 5.4 73 2.1 WNW 13 19 7 10 1020.6 1020.7 0.0
31/02:30am 9.4 5.8 5.0 74 2.0 WNW 13 19 7 10 1020.6 - 0.0
31/02:00am 9.5 5.9 4.9 73 2.1 WNW 13 17 7 9 1020.6 - 0.0
31/01:30am 9.0 5.8 5.1 76 1.8 WNW 11 15 6 8 1020.6 - 0.0
31/01:00am 7.4 4.5 4.5 82 1.3 NNW 9 11 5 6 1020.3 - 0.0
31/12:30am 9.3 6.4 4.9 74 2.0 NW 9 13 5 7 1020.3 - 0.0
31/12:00am 10.7 7.1 4.8 67 2.7 W 13 19 7 10 1020.5 1020.6 0.0
 
Date/Time
WST
Temp
°C
App
Temp
°C
Dew
Point
Rel
Hum
%
Delta-T
°C
Wind Press
QNH
hPa
Press
MSL
hPa
Rain
since 9 am
mm
Dir
 
Spd
km/h
Gust
km/h
Spd
kts
Gust
kts
30/11:30pm 10.8 7.2 5.0 67 2.7 W 13 19 7 10 1020.8 - 0.0
30/11:00pm 11.2 7.6 4.9 65 2.9 W 13 20 7 11 1020.7 - 0.0
30/10:30pm 11.8 7.0 4.9 62 3.2 W 19 28 10 15 1020.9 - 0.0
30/10:00pm 11.8 7.4 4.7 62 3.3 WSW 17 24 9 13 1020.8 - 0.0
30/09:30pm 12.0 7.6 4.7 61 3.4 WSW 17 22 9 12 1020.8 - 0.0
30/09:00pm 12.8 8.0 4.7 58 3.8 WSW 19 26 10 14 1020.6 1020.7 0.0
30/08:30pm 13.3 8.3 4.8 56 4.0 WSW 20 28 11 15 1020.3 - 0.0
30/08:00pm 13.9 8.9 4.8 54 4.3 WSW 20 32 11 17 1020.2 - 0.0
30/07:30pm 14.6 9.6 4.7 51 4.7 WSW 20 26 11 14 1020.0 - 0.0
30/07:00pm 15.1 10.3 4.8 50 4.9 WSW 19 26 10 14 1019.9 - 0.0
30/06:30pm 15.7 11.2 4.0 45 5.5 WSW 17 24 9 13 1019.6 - 0.0
30/06:00pm 16.7 12.0 3.2 40 6.3 WSW 17 26 9 14 1019.1 1019.2 0.0
30/05:30pm 17.5 11.8 3.0 38 6.8 WSW 22 32 12 17 1018.9 - 0.0
30/05:00pm 18.5 13.1 2.4 34 7.5 WSW 20 32 11 17 1018.7 - 0.0
30/04:30pm 19.7 13.4 1.5 29 8.4 W 24 39 13 21 1018.4 - 0.0
30/04:00pm 20.3 13.5 0.9 27 8.9 W 26 35 14 19 1018.1 - 0.0
30/03:30pm 20.7 14.7 1.3 27 9.0 WNW 22 33 12 18 1018.1 - 0.0
30/03:00pm 21.2 15.7 1.9 28 9.1 W 20 30 11 16 1018.2 - 0.0
30/02:30pm 20.7 14.5 2.0 29 8.8 W 24 33 13 18 1018.3 - 0.0
30/02:00pm 20.4 15.4 3.7 33 8.1 WNW 19 28 10 15 1018.4 - 0.0
30/01:30pm 19.9 14.7 3.8 34 7.8 W 20 28 11 15 1018.7 - 0.0
30/01:00pm 19.7 14.1 3.5 34 7.8 WSW 22 28 12 15 1019.1 - 0.0
30/12:30pm 19.2 14.3 3.9 36 7.4 WNW 19 28 10 15 1019.8 - 0.0
30/12:00pm 18.4 13.6 4.6 40 6.7 W 19 26 10 14 1020.2 1020.4 0.0
30/11:30am 18.2 12.8 4.6 40 6.6 W 22 28 12 15 1021.0 - 0.0
30/11:00am 17.8 13.5 5.4 44 6.1 WNW 17 26 9 14 1021.5 - 0.0
30/10:30am 15.9 12.1 5.6 50 5.0 WNW 15 22 8 12 1022.1 - 0.0
30/10:00am 15.7 11.9 5.9 52 4.8 WNW 15 22 8 12 1022.4 - 0.0
30/09:30am 14.0 10.7 6.2 59 3.8 WNW 13 17 7 9 1022.7 - 0.0
30/09:00am 12.5 8.9 5.0 60 3.5 WNW 13 17 7 9 1022.9 1023.1 0.0
30/08:30am 11.1 8.0 5.6 69 2.6 WNW 11 19 6 10 1023.0 - 0.0
30/08:00am 9.8 7.1 5.5 74 2.0 WNW 9 15 5 8 1022.8 - 0.0
30/07:30am 7.1 4.2 4.6 84 1.1 NW 9 9 5 5 1022.8 - 0.0
30/07:00am 5.6 2.2 4.0 89 0.7 NW 11 13 6 7 1022.7 - 0.0
30/06:30am 5.4 2.0 4.0 91 0.6 NW 11 13 6 7 1022.5 - 0.0
30/06:00am 5.2 1.8 3.8 91 0.6 NNW 11 13 6 7 1022.3 1022.5 0.0
30/05:30am 5.7 2.6 3.8 87 0.8 NW 9 11 5 6 1022.2 - 0.0
30/05:00am 5.7 2.6 3.8 87 0.8 NW 9 11 5 6 1022.2 - 0.0
30/04:30am 6.2 3.2 4.1 86 0.9 NW 9 11 5 6 1022.1 - 0.0
30/04:00am 6.2 3.2 4.1 86 0.9 WNW 9 11 5 6 1022.0 - 0.0
30/03:30am 5.5 2.3 3.1 84 1.0 NW 9 11 5 6 1022.1 - 0.0
30/03:00am 5.1 2.3 2.9 86 0.9 NNW 7 9 4 5 1022.2 1022.4 0.0
30/02:30am 4.6 1.9 2.9 89 0.7 NNW 6 7 3 4 1022.4 - 0.0
30/02:00am 6.1 3.4 3.5 83 1.1 NNW 7 7 4 4 1022.5 - 0.0
30/01:30am 6.7 4.0 3.9 82 1.2 NNW 7 7 4 4 1022.7 - 0.0
30/01:00am 6.1 3.3 3.3 82 1.2 NNW 7 9 4 5 1023.0 - 0.0
30/12:30am 6.2 3.7 3.6 83 1.1 NNW 6 7 3 4 1023.0 - 0.0
30/12:00am 7.6 6.3 4.2 79 1.5 CALM 0 0 0 0 1023.2 1023.4 0.0
 
Date/Time
WST
Temp
°C
App
Temp
°C
Dew
Point
Rel
Hum
%
Delta-T
°C
Wind Press
QNH
hPa
Press
MSL
hPa
Rain
since 9 am
mm
Dir
 
Spd
km/h
Gust
km/h
Spd
kts
Gust
kts
29/11:30pm 8.2 5.8 4.4 77 1.7 SW 6 9 3 5 1023.4 - 0.0
29/11:00pm 9.9 7.3 4.4 68 2.5 SW 7 9 4 5 1023.4 - 0.0
29/10:30pm 10.5 7.1 4.1 64 2.9 SW 11 13 6 7 1023.4 - 0.0
29/10:00pm 11.0 7.2 3.9 61 3.2 SW 13 15 7 8 1023.4 - 0.0
29/09:30pm 11.7 8.2 3.7 58 3.6 WSW 11 15 6 8 1023.2 - 0.0
29/09:00pm 11.7 8.2 3.7 58 3.6 WSW 11 15 6 8 1023.4 1023.5 0.0
29/08:30pm 12.2 8.7 3.6 55 3.9 WSW 11 13 6 7 1023.2 - 0.0
29/08:00pm 11.8 8.3 3.3 56 3.8 WSW 11 13 6 7 1023.2 - 0.0
29/07:30pm 12.4 8.9 3.3 54 4.1 WSW 11 13 6 7 1023.1 - 0.0
29/07:00pm 13.2 10.2 4.1 54 4.2 W 9 9 5 5 1023.0 - 0.0
29/06:30pm 13.5 10.9 4.0 52 4.4 W 7 7 4 4 1022.8 - 0.0
29/06:00pm 14.6 11.9 3.6 47 5.1 W 7 9 4 5 1022.6 1022.8 0.0
29/05:30pm 16.2 13.5 3.6 43 5.9 WNW 7 9 4 5 1022.2 - 0.0
29/05:00pm 17.5 13.8 2.6 37 6.9 NW 11 17 6 9 1022.0 - 0.0
29/04:30pm 18.7 14.6 2.1 33 7.7 NW 13 20 7 11 1021.9 - 0.0
29/04:00pm 19.4 15.7 2.6 32 7.9 NW 11 19 6 10 1021.9 - 0.0
29/03:30pm 19.5 15.3 1.8 30 8.2 NW 13 20 7 11 1022.1 - 0.0
29/03:00pm 19.3 14.2 2.8 33 7.8 W 19 28 10 15 1022.1 1022.3 0.0
29/02:30pm 19.2 13.9 2.9 34 7.7 NW 20 26 11 14 1022.2 - 0.0
29/02:00pm 19.0 14.7 3.2 35 7.5 W 15 24 8 13 1022.3 - 0.0
29/01:30pm 19.1 14.0 3.1 34 7.6 W 19 26 10 14 1022.6 - 0.0
29/01:00pm 18.3 14.9 4.2 39 6.8 W 11 22 6 12 1022.9 - 0.0
29/12:30pm 17.8 14.5 4.6 41 6.4 W 11 17 6 9 1023.4 - 0.0
29/12:00pm 16.9 13.2 4.6 44 5.9 W 13 30 7 16 1024.1 1024.3 0.0
29/11:30am 17.0 13.0 4.8 44 5.9 NW 15 22 8 12 1024.5 - 0.0
29/11:00am 16.6 12.6 5.0 46 5.6 W 15 24 8 13 1024.8 - 0.0
29/10:30am 16.2 12.6 5.2 48 5.3 WNW 13 19 7 10 1025.1 - 0.0
29/10:00am 14.7 10.9 5.6 54 4.4 W 15 20 8 11 1025.3 - 0.0
29/09:30am 13.7 10.3 6.0 59 3.7 W 13 20 7 11 1025.3 - 0.0
29/09:00am 12.5 9.3 6.7 68 2.8 W 13 17 7 9 1025.0 1025.2 0.0
29/08:30am 10.4 7.1 6.6 77 1.8 WNW 13 19 7 10 1024.7 - 0.0
29/08:00am 9.2 5.9 6.2 81 1.4 WNW 13 17 7 9 1024.6 - 0.0
29/07:30am 7.9 4.4 5.5 85 1.1 WNW 13 19 7 10 1024.6 - 0.0
29/07:00am 6.6 3.3 4.8 88 0.8 WNW 11 15 6 8 1024.2 - 0.0
29/06:30am 6.0 3.0 4.2 88 0.8 WNW 9 13 5 7 1024.1 - 0.0
29/06:00am 6.5 3.5 4.2 85 1.0 WNW 9 13 5 7 1023.7 1023.8 0.0
29/05:30am 7.1 3.3 4.1 81 1.3 W 13 17 7 9 1023.6 - 0.0
29/05:00am 7.4 3.7 4.2 80 1.4 W 13 17 7 9 1023.5 - 0.0
29/04:30am 7.7 3.9 4.1 78 1.6 W 13 17 7 9 1023.2 - 0.0
29/04:00am 7.7 3.9 4.1 78 1.6 WNW 13 15 7 8 1023.0 - 0.0
29/03:30am 7.8 4.1 4.2 78 1.6 WNW 13 17 7 9 1023.0 - 0.0
29/03:00am 8.0 4.2 3.9 75 1.8 WNW 13 17 7 9 1023.0 1023.2 0.0
29/02:30am 7.9 4.5 3.8 75 1.8 WNW 11 15 6 8 1023.0 - 0.0
29/02:00am 8.0 5.0 4.2 77 1.7 WNW 9 13 5 7 1022.9 - 0.0
29/01:30am 9.2 5.9 4.3 71 2.2 WNW 11 13 6 7 1023.0 - 0.0
29/01:00am 9.0 5.7 4.3 72 2.1 W 11 13 6 7 1022.9 - 0.0
29/12:30am 9.2 5.5 4.5 72 2.1 WSW 13 15 7 8 1023.0 - 0.0
29/12:00am 10.0 6.3 4.5 68 2.5 W 13 17 7 9 1023.1 1023.3 0.0
 
Date/Time
WST
Temp
°C
App
Temp
°C
Dew
Point
Rel
Hum
%
Delta-T
°C
Wind Press
QNH
hPa
Press
MSL
hPa
Rain
since 9 am
mm
Dir
 
Spd
km/h
Gust
km/h
Spd
kts
Gust
kts
28/11:30pm 10.5 6.4 4.3 65 2.8 WSW 15 17 8 9 1023.4 - 0.0
28/11:00pm 10.4 6.6 4.0 64 2.9 WSW 13 17 7 9 1023.6 - 0.0
28/10:30pm 10.9 7.1 3.8 61 3.2 WSW 13 19 7 10 1023.8 - 0.0
28/10:00pm 10.9 7.1 3.8 61 3.2 WSW 13 20 7 11 1023.9 - 0.0
28/09:30pm 10.5 7.1 3.8 63 3.0 WSW 11 15 6 8 1023.8 - 0.0
28/09:00pm 10.6 7.1 3.7 62 3.1 WSW 11 13 6 7 1023.7 1023.8 0.0
28/08:30pm 11.5 7.9 3.2 56 3.7 WSW 11 13 6 7 1023.7 - 0.0
28/08:00pm 11.7 8.1 3.2 56 3.8 WSW 11 13 6 7 1023.4 - 0.0
28/07:30pm 12.2 8.6 3.0 53 4.1 W 11 13 6 7 1023.1 - 0.0
28/07:00pm 13.0 9.4 2.7 49 4.6 WSW 11 13 6 7 1022.9 - 0.0
28/06:30pm 13.0 9.4 2.7 49 4.6 WSW 11 13 6 7 1022.6 - 0.0
28/06:00pm 14.1 10.4 2.6 46 5.2 WSW 11 13 6 7 1022.0 1022.2 0.0
28/05:30pm 15.4 11.3 2.1 40 6.0 WSW 13 20 7 11 1021.6 - 0.0
28/05:00pm 17.0 11.6 1.5 35 7.0 WSW 19 26 10 14 1021.2 - 0.0
28/04:30pm 18.3 13.0 1.7 33 7.6 W 19 26 10 14 1021.0 - 0.0
28/04:00pm 18.7 13.1 1.1 30 8.0 W 20 35 11 19 1020.8 - 0.0
28/03:30pm 19.3 13.9 1.5 30 8.2 W 19 26 10 14 1020.8 - 0.0

Other Formats:

Comma delimited format used in spreadsheet applications
http://www.bom.gov.au/fwo/IDW60801/IDW60801.94637.axf

JavaScript Object Notation format (JSON) in row-major order
http://www.bom.gov.au/fwo/IDW60801/IDW60801.94637.json